SWA3438 KMKE-KDCA
Flight info
| Callsign | SWA3438 |
|---|---|
| Flight time | 1h 28m |
| Altitude | 39000 |
| Route | UECKR6 SAMPL ADIME OTENS ANEWA JERRI NUSMM BUCKO FRDMM6 |
| Aircraft | B737/M-SDE2E3FGHIRWXY/LB1 |
Departure
| Time | 2026-04-20 15:09 |
|---|---|
| Airport | General Mitchell International Airport (KMKE) |
Arrival
| Time | 2026-04-20 16:38 |
|---|---|
| Airport | Ronald Reagan Washington National Airport (KDCA) |
| Time | Latitude | Longitude | Altitude | Speed | Heading |
|---|---|---|---|---|---|
| 2026-04-20 14:41 | 42.95078 | -87.90139 | 687 ft | 0 kts | 118° |
| 2026-04-20 14:59 | 42.95086 | -87.90158 | 687 ft | 4 kts | 118° |
| 2026-04-20 14:59 | 42.95096 | -87.90184 | 679 ft | 4 kts | 114° |
| 2026-04-20 14:59 | 42.95099 | -87.90210 | 681 ft | 4 kts | 42° |
| 2026-04-20 14:59 | 42.95080 | -87.90227 | 680 ft | 2 kts | 28° |
| 2026-04-20 15:00 | 42.95078 | -87.90228 | 687 ft | 0 kts | 28° |
| 2026-04-20 15:01 | 42.95092 | -87.90218 | 684 ft | 5 kts | 28° |
| 2026-04-20 15:02 | 42.95136 | -87.90184 | 686 ft | 9 kts | 32° |
| 2026-04-20 15:02 | 42.95191 | -87.90124 | 684 ft | 11 kts | 42° |
| 2026-04-20 15:02 | 42.95202 | -87.90040 | 684 ft | 10 kts | 126° |
| 2026-04-20 15:02 | 42.95154 | -87.89968 | 682 ft | 11 kts | 133° |
| 2026-04-20 15:03 | 42.95095 | -87.89881 | 687 ft | 14 kts | 132° |
| 2026-04-20 15:03 | 42.95006 | -87.89795 | 686 ft | 17 kts | 153° |
| 2026-04-20 15:03 | 42.94927 | -87.89712 | 683 ft | 11 kts | 156° |
| 2026-04-20 15:03 | 42.94848 | -87.89709 | 680 ft | 13 kts | 186° |
| 2026-04-20 15:04 | 42.94721 | -87.89731 | 681 ft | 23 kts | 187° |
| 2026-04-20 15:04 | 42.94604 | -87.89769 | 679 ft | 13 kts | 220° |
| 2026-04-20 15:04 | 42.94551 | -87.89876 | 684 ft | 15 kts | 241° |
| 2026-04-20 15:04 | 42.94508 | -87.90027 | 687 ft | 20 kts | 251° |
| 2026-04-20 15:05 | 42.94466 | -87.90210 | 685 ft | 20 kts | 258° |
| 2026-04-20 15:05 | 42.94433 | -87.90391 | 686 ft | 19 kts | 251° |
| 2026-04-20 15:05 | 42.94391 | -87.90554 | 687 ft | 14 kts | 242° |
| 2026-04-20 15:05 | 42.94325 | -87.90644 | 684 ft | 13 kts | 222° |
| 2026-04-20 15:06 | 42.94276 | -87.90743 | 687 ft | 13 kts | 251° |
| 2026-04-20 15:06 | 42.94248 | -87.90857 | 685 ft | 13 kts | 251° |
| 2026-04-20 15:06 | 42.94217 | -87.90985 | 687 ft | 16 kts | 251° |
| 2026-04-20 15:06 | 42.94180 | -87.91138 | 685 ft | 18 kts | 251° |
| 2026-04-20 15:07 | 42.94137 | -87.91313 | 683 ft | 21 kts | 251° |
| 2026-04-20 15:07 | 42.94089 | -87.91509 | 687 ft | 23 kts | 251° |
| 2026-04-20 15:07 | 42.94042 | -87.91704 | 687 ft | 14 kts | 252° |
| 2026-04-20 15:07 | 42.94001 | -87.91795 | 685 ft | 11 kts | 198° |
| 2026-04-20 15:08 | 42.93932 | -87.91769 | 683 ft | 10 kts | 151° |
| 2026-04-20 15:08 | 42.93929 | -87.91686 | 683 ft | 10 kts | 68° |
| 2026-04-20 15:08 | 42.93958 | -87.91569 | 683 ft | 31 kts | 71° |
| 2026-04-20 15:08 | 42.94108 | -87.90951 | 686 ft | 104 kts | 71° |
| 2026-04-20 15:09 | 42.94400 | -87.89764 | 752 ft | 152 kts | 75° |
| 2026-04-20 15:09 | 42.94734 | -87.88380 | 1450 ft | 157 kts | 75° |
| 2026-04-20 15:09 | 42.95107 | -87.86881 | 2017 ft | 176 kts | 73° |
| 2026-04-20 15:09 | 42.95564 | -87.85192 | 2447 ft | 205 kts | 74° |
| 2026-04-20 15:10 | 42.95711 | -87.83173 | 2795 ft | 224 kts | 104° |
| 2026-04-20 15:10 | 42.94998 | -87.81188 | 3140 ft | 246 kts | 136° |
| 2026-04-20 15:10 | 42.93599 | -87.79771 | 3808 ft | 257 kts | 154° |
| 2026-04-20 15:10 | 42.91978 | -87.78681 | 4686 ft | 262 kts | 158° |
| 2026-04-20 15:11 | 42.90295 | -87.77640 | 5575 ft | 268 kts | 158° |
| 2026-04-20 15:11 | 42.88571 | -87.76578 | 6470 ft | 275 kts | 157° |
| 2026-04-20 15:11 | 42.86825 | -87.75492 | 7316 ft | 283 kts | 156° |
| 2026-04-20 15:11 | 42.85010 | -87.74349 | 8168 ft | 292 kts | 156° |
| 2026-04-20 15:12 | 42.83139 | -87.73161 | 9038 ft | 301 kts | 156° |
| 2026-04-20 15:12 | 42.81209 | -87.71930 | 9947 ft | 310 kts | 156° |
| 2026-04-20 15:12 | 42.79218 | -87.70655 | 10804 ft | 321 kts | 156° |
| 2026-04-20 15:12 | 42.77110 | -87.69305 | 11208 ft | 346 kts | 156° |
| 2026-04-20 15:13 | 42.74898 | -87.67886 | 11946 ft | 356 kts | 156° |
| 2026-04-20 15:13 | 42.72666 | -87.66454 | 12860 ft | 362 kts | 156° |
| 2026-04-20 15:13 | 42.70370 | -87.64992 | 13788 ft | 367 kts | 158° |
| 2026-04-20 15:13 | 42.67904 | -87.64108 | 14628 ft | 368 kts | 179° |
| 2026-04-20 15:14 | 42.65334 | -87.63936 | 15532 ft | 371 kts | 182° |
| 2026-04-20 15:14 | 42.62728 | -87.63811 | 16391 ft | 378 kts | 182° |
| 2026-04-20 15:14 | 42.60074 | -87.63665 | 17249 ft | 385 kts | 182° |
| 2026-04-20 15:14 | 42.57367 | -87.63484 | 18079 ft | 392 kts | 181° |
| 2026-04-20 15:15 | 42.54624 | -87.63285 | 18903 ft | 398 kts | 181° |
| 2026-04-20 15:15 | 42.51831 | -87.63072 | 19641 ft | 405 kts | 181° |
| 2026-04-20 15:15 | 42.48996 | -87.62841 | 20400 ft | 411 kts | 181° |
| 2026-04-20 15:15 | 42.46117 | -87.62605 | 21158 ft | 417 kts | 181° |
| 2026-04-20 15:16 | 42.43200 | -87.62376 | 21896 ft | 422 kts | 182° |
| 2026-04-20 15:16 | 42.40281 | -87.62606 | 22606 ft | 420 kts | 195° |
| 2026-04-20 15:16 | 42.37432 | -87.63318 | 23340 ft | 424 kts | 197° |
| 2026-04-20 15:16 | 42.34510 | -87.64040 | 24049 ft | 430 kts | 196° |
| 2026-04-20 15:17 | 42.31474 | -87.64328 | 24591 ft | 448 kts | 178° |
| 2026-04-20 15:17 | 42.28419 | -87.63264 | 25216 ft | 458 kts | 160° |
| 2026-04-20 15:17 | 42.25453 | -87.61623 | 25875 ft | 462 kts | 158° |
| 2026-04-20 15:17 | 42.22479 | -87.59897 | 26431 ft | 468 kts | 158° |
| 2026-04-20 15:18 | 42.19470 | -87.58153 | 26981 ft | 474 kts | 158° |
| 2026-04-20 15:18 | 42.16407 | -87.56413 | 27514 ft | 478 kts | 159° |
| 2026-04-20 15:18 | 42.13318 | -87.54694 | 28090 ft | 482 kts | 159° |
| 2026-04-20 15:18 | 42.10201 | -87.52980 | 28642 ft | 486 kts | 159° |
| 2026-04-20 15:19 | 42.07051 | -87.51256 | 29179 ft | 491 kts | 159° |
| 2026-04-20 15:19 | 42.03904 | -87.49383 | 29668 ft | 497 kts | 149° |
| 2026-04-20 15:19 | 42.01200 | -87.46491 | 30130 ft | 497 kts | 129° |
| 2026-04-20 15:19 | 41.99248 | -87.42780 | 30643 ft | 490 kts | 112° |
| 2026-04-20 15:20 | 41.98002 | -87.38581 | 31074 ft | 480 kts | 96° |
| 2026-04-20 15:20 | 41.97571 | -87.34208 | 31474 ft | 468 kts | 83° |
| 2026-04-20 15:20 | 41.97501 | -87.29830 | 31926 ft | 468 kts | 81° |
| 2026-04-20 15:20 | 41.97485 | -87.25436 | 32277 ft | 471 kts | 81° |
| 2026-04-20 15:21 | 41.97477 | -87.21021 | 32631 ft | 475 kts | 81° |
| 2026-04-20 15:21 | 41.97453 | -87.16553 | 32988 ft | 478 kts | 81° |
| 2026-04-20 15:21 | 41.97410 | -87.12067 | 33343 ft | 480 kts | 82° |
| 2026-04-20 15:21 | 41.97348 | -87.07575 | 33778 ft | 480 kts | 82° |
| 2026-04-20 15:22 | 41.97275 | -87.03153 | 34293 ft | 478 kts | 82° |
| 2026-04-20 15:22 | 41.97194 | -86.98690 | 34721 ft | 477 kts | 82° |
| 2026-04-20 15:22 | 41.97113 | -86.94233 | 35047 ft | 478 kts | 82° |
| 2026-04-20 15:22 | 41.97033 | -86.89749 | 35276 ft | 481 kts | 83° |
| 2026-04-20 15:23 | 41.96951 | -86.85247 | 35546 ft | 482 kts | 83° |
| 2026-04-20 15:23 | 41.96867 | -86.80740 | 35879 ft | 482 kts | 83° |
| 2026-04-20 15:23 | 41.96781 | -86.76237 | 36196 ft | 482 kts | 84° |
| 2026-04-20 15:23 | 41.96693 | -86.71715 | 36468 ft | 483 kts | 84° |
| 2026-04-20 15:24 | 41.96604 | -86.67190 | 36734 ft | 485 kts | 84° |
| 2026-04-20 15:24 | 41.96514 | -86.62720 | 37018 ft | 485 kts | 84° |
| 2026-04-20 15:24 | 41.96421 | -86.58188 | 37308 ft | 486 kts | 84° |
| 2026-04-20 15:24 | 41.96326 | -86.53632 | 37595 ft | 487 kts | 85° |
| 2026-04-20 15:25 | 41.96229 | -86.49072 | 37809 ft | 489 kts | 85° |
| 2026-04-20 15:25 | 41.96130 | -86.44505 | 38092 ft | 489 kts | 85° |
| 2026-04-20 15:25 | 41.96028 | -86.39937 | 38410 ft | 489 kts | 85° |
| 2026-04-20 15:25 | 41.95925 | -86.35373 | 38674 ft | 490 kts | 86° |
| 2026-04-20 15:26 | 41.95821 | -86.30784 | 38897 ft | 491 kts | 86° |
| 2026-04-20 15:26 | 41.95715 | -86.26196 | 39157 ft | 491 kts | 86° |
| 2026-04-20 15:26 | 41.95534 | -86.21612 | 39388 ft | 494 kts | 91° |
| 2026-04-20 15:27 | 41.94055 | -86.12514 | 39447 ft | 506 kts | 101° |
| 2026-04-20 15:27 | 41.92163 | -86.03427 | 39422 ft | 502 kts | 102° |
| 2026-04-20 15:28 | 41.90620 | -85.95964 | 39412 ft | 498 kts | 101° |
| 2026-04-20 15:28 | 41.88820 | -85.86995 | 39424 ft | 497 kts | 101° |
| 2026-04-20 15:29 | 41.87044 | -85.78034 | 39430 ft | 497 kts | 101° |
| 2026-04-20 15:29 | 41.85261 | -85.69072 | 39428 ft | 498 kts | 101° |
| 2026-04-20 15:30 | 41.83463 | -85.60093 | 39413 ft | 498 kts | 101° |
| 2026-04-20 15:30 | 41.81652 | -85.51097 | 39421 ft | 499 kts | 101° |
| 2026-04-20 15:31 | 41.79845 | -85.42161 | 39434 ft | 501 kts | 101° |
| 2026-04-20 15:31 | 41.78011 | -85.33133 | 39418 ft | 502 kts | 101° |
| 2026-04-20 15:32 | 41.76170 | -85.24114 | 39428 ft | 502 kts | 102° |
| 2026-04-20 15:32 | 41.74318 | -85.15077 | 39417 ft | 503 kts | 102° |
| 2026-04-20 15:33 | 41.72458 | -85.06041 | 39423 ft | 503 kts | 102° |
| 2026-04-20 15:33 | 41.70603 | -84.97066 | 39432 ft | 503 kts | 102° |
| 2026-04-20 15:34 | 41.68734 | -84.88054 | 39422 ft | 502 kts | 102° |
| 2026-04-20 15:34 | 41.66901 | -84.79044 | 39418 ft | 500 kts | 98° |
| 2026-04-20 15:35 | 41.66195 | -84.69891 | 39428 ft | 492 kts | 88° |
| 2026-04-20 15:35 | 41.65890 | -84.60803 | 39428 ft | 492 kts | 88° |
| 2026-04-20 15:36 | 41.65552 | -84.51655 | 39426 ft | 493 kts | 88° |
| 2026-04-20 15:36 | 41.65160 | -84.42508 | 39427 ft | 493 kts | 89° |
| 2026-04-20 15:37 | 41.64743 | -84.33357 | 39428 ft | 493 kts | 89° |
| 2026-04-20 15:37 | 41.64320 | -84.24206 | 39433 ft | 494 kts | 89° |
| 2026-04-20 15:38 | 41.63891 | -84.15035 | 39427 ft | 494 kts | 89° |
| 2026-04-20 15:38 | 41.63455 | -84.05850 | 39419 ft | 495 kts | 89° |
| 2026-04-20 15:39 | 41.63014 | -83.96717 | 39426 ft | 495 kts | 89° |
| 2026-04-20 15:39 | 41.62563 | -83.87513 | 39442 ft | 496 kts | 89° |
| 2026-04-20 15:40 | 41.62103 | -83.78302 | 39436 ft | 497 kts | 90° |
| 2026-04-20 15:40 | 41.61636 | -83.69063 | 39431 ft | 497 kts | 90° |
| 2026-04-20 15:41 | 41.61038 | -83.59902 | 39425 ft | 501 kts | 97° |
| 2026-04-20 15:41 | 41.59197 | -83.50875 | 39433 ft | 504 kts | 104° |
| 2026-04-20 15:42 | 41.57088 | -83.41932 | 39436 ft | 505 kts | 105° |
| 2026-04-20 15:42 | 41.55015 | -83.32972 | 39432 ft | 505 kts | 104° |
| 2026-04-20 15:43 | 41.52986 | -83.24008 | 39433 ft | 505 kts | 104° |
| 2026-04-20 15:43 | 41.50960 | -83.15026 | 39447 ft | 505 kts | 104° |
| 2026-04-20 15:44 | 41.48923 | -83.06047 | 39432 ft | 505 kts | 104° |
| 2026-04-20 15:44 | 41.46889 | -82.97131 | 39425 ft | 506 kts | 104° |
| 2026-04-20 15:45 | 41.44832 | -82.88156 | 39425 ft | 505 kts | 104° |
| 2026-04-20 15:45 | 41.42769 | -82.79186 | 39430 ft | 505 kts | 104° |
| 2026-04-20 15:46 | 41.40703 | -82.70232 | 39428 ft | 506 kts | 105° |
| 2026-04-20 15:46 | 41.38167 | -82.61485 | 39423 ft | 508 kts | 118° |
| 2026-04-20 15:47 | 41.33989 | -82.53995 | 39419 ft | 507 kts | 135° |
| 2026-04-20 15:47 | 41.29018 | -82.47341 | 39408 ft | 507 kts | 136° |
| 2026-04-20 15:48 | 41.24017 | -82.40722 | 39411 ft | 507 kts | 136° |
| 2026-04-20 15:48 | 41.19043 | -82.34053 | 39417 ft | 508 kts | 136° |
| 2026-04-20 15:49 | 41.14114 | -82.27398 | 39407 ft | 508 kts | 135° |
| 2026-04-20 15:49 | 41.09155 | -82.20706 | 39408 ft | 508 kts | 136° |
| 2026-04-20 15:50 | 41.04182 | -82.14015 | 39397 ft | 508 kts | 136° |
| 2026-04-20 15:50 | 40.99216 | -82.07353 | 39397 ft | 508 kts | 136° |
| 2026-04-20 15:51 | 40.94243 | -82.00698 | 39398 ft | 509 kts | 136° |
| 2026-04-20 15:51 | 40.89258 | -81.94043 | 39393 ft | 509 kts | 136° |
| 2026-04-20 15:52 | 40.84293 | -81.87429 | 39379 ft | 509 kts | 136° |
| 2026-04-20 15:52 | 40.79303 | -81.80796 | 39390 ft | 509 kts | 136° |
| 2026-04-20 15:53 | 40.71805 | -81.70857 | 39396 ft | 509 kts | 136° |
| 2026-04-20 15:53 | 40.66801 | -81.64243 | 39402 ft | 509 kts | 136° |
| 2026-04-20 15:54 | 40.61796 | -81.57643 | 39400 ft | 509 kts | 136° |
| 2026-04-20 15:54 | 40.56788 | -81.51054 | 39395 ft | 508 kts | 137° |
| 2026-04-20 15:55 | 40.51780 | -81.44478 | 39405 ft | 508 kts | 137° |
| 2026-04-20 15:55 | 40.46779 | -81.37928 | 39405 ft | 508 kts | 137° |
| 2026-04-20 15:56 | 40.41799 | -81.31419 | 39404 ft | 508 kts | 137° |
| 2026-04-20 15:56 | 40.36772 | -81.24863 | 39416 ft | 507 kts | 137° |
| 2026-04-20 15:57 | 40.31759 | -81.18340 | 39399 ft | 507 kts | 137° |
| 2026-04-20 15:57 | 40.26772 | -81.11866 | 39395 ft | 507 kts | 137° |
| 2026-04-20 15:58 | 40.21759 | -81.05371 | 39385 ft | 507 kts | 137° |
| 2026-04-20 15:58 | 40.16744 | -80.98888 | 39377 ft | 506 kts | 137° |
| 2026-04-20 15:59 | 40.11724 | -80.92412 | 39347 ft | 506 kts | 137° |
| 2026-04-20 15:59 | 40.06719 | -80.85966 | 39377 ft | 505 kts | 138° |
| 2026-04-20 16:00 | 40.01746 | -80.79542 | 39380 ft | 506 kts | 137° |
| 2026-04-20 16:00 | 39.96857 | -80.72917 | 39376 ft | 506 kts | 136° |
| 2026-04-20 16:01 | 39.92010 | -80.66263 | 39375 ft | 506 kts | 136° |
| 2026-04-20 16:01 | 39.87143 | -80.59636 | 39338 ft | 506 kts | 136° |
| 2026-04-20 16:02 | 39.82285 | -80.53066 | 39364 ft | 506 kts | 136° |
| 2026-04-20 16:02 | 39.77393 | -80.46474 | 39358 ft | 506 kts | 136° |
| 2026-04-20 16:03 | 39.72495 | -80.39885 | 39347 ft | 506 kts | 137° |
| 2026-04-20 16:03 | 39.67593 | -80.33304 | 39327 ft | 507 kts | 137° |
| 2026-04-20 16:04 | 39.65124 | -80.29996 | 39095 ft | 511 kts | 137° |
| 2026-04-20 16:04 | 39.62657 | -80.26691 | 38851 ft | 508 kts | 137° |
| 2026-04-20 16:04 | 39.60206 | -80.23413 | 38546 ft | 507 kts | 137° |
| 2026-04-20 16:04 | 39.57745 | -80.20123 | 38293 ft | 509 kts | 137° |
| 2026-04-20 16:05 | 39.55279 | -80.16833 | 37838 ft | 509 kts | 137° |
| 2026-04-20 16:05 | 39.52842 | -80.13583 | 37209 ft | 508 kts | 137° |
| 2026-04-20 16:05 | 39.50354 | -80.10269 | 36550 ft | 507 kts | 137° |
| 2026-04-20 16:05 | 39.47921 | -80.07033 | 35861 ft | 507 kts | 137° |
| 2026-04-20 16:06 | 39.45452 | -80.03752 | 35086 ft | 510 kts | 137° |
| 2026-04-20 16:06 | 39.42976 | -80.00465 | 34483 ft | 508 kts | 137° |
| 2026-04-20 16:06 | 39.40513 | -79.97198 | 33810 ft | 505 kts | 137° |
| 2026-04-20 16:06 | 39.38069 | -79.93958 | 33226 ft | 500 kts | 137° |
| 2026-04-20 16:07 | 39.35651 | -79.90756 | 32626 ft | 495 kts | 137° |
| 2026-04-20 16:07 | 39.33258 | -79.87592 | 32130 ft | 490 kts | 137° |
| 2026-04-20 16:07 | 39.30996 | -79.84311 | 31565 ft | 489 kts | 125° |
| 2026-04-20 16:07 | 39.29443 | -79.80424 | 31104 ft | 485 kts | 108° |
| 2026-04-20 16:08 | 39.28729 | -79.76232 | 30733 ft | 475 kts | 94° |
| 2026-04-20 16:08 | 39.28420 | -79.72011 | 30333 ft | 469 kts | 91° |
| 2026-04-20 16:08 | 39.28169 | -79.67879 | 29864 ft | 467 kts | 91° |
| 2026-04-20 16:08 | 39.27894 | -79.63707 | 29465 ft | 467 kts | 92° |
| 2026-04-20 16:09 | 39.27578 | -79.59519 | 29065 ft | 470 kts | 93° |
| 2026-04-20 16:09 | 39.27237 | -79.55323 | 28664 ft | 469 kts | 93° |
| 2026-04-20 16:09 | 39.26892 | -79.51161 | 28257 ft | 466 kts | 93° |
| 2026-04-20 16:09 | 39.26552 | -79.47021 | 27873 ft | 463 kts | 93° |
| 2026-04-20 16:10 | 39.26214 | -79.42887 | 27467 ft | 461 kts | 93° |
| 2026-04-20 16:10 | 39.25880 | -79.38786 | 27095 ft | 460 kts | 94° |
| 2026-04-20 16:10 | 39.25545 | -79.34679 | 26696 ft | 459 kts | 94° |
| 2026-04-20 16:10 | 39.25207 | -79.30575 | 26313 ft | 458 kts | 94° |
| 2026-04-20 16:11 | 39.24869 | -79.26482 | 25911 ft | 458 kts | 94° |
| 2026-04-20 16:11 | 39.24529 | -79.22408 | 25532 ft | 457 kts | 94° |
| 2026-04-20 16:11 | 39.24185 | -79.18334 | 25149 ft | 456 kts | 94° |
| 2026-04-20 16:11 | 39.23839 | -79.14268 | 24754 ft | 455 kts | 94° |
| 2026-04-20 16:12 | 39.23493 | -79.10228 | 24378 ft | 453 kts | 94° |
| 2026-04-20 16:12 | 39.23146 | -79.06180 | 24005 ft | 451 kts | 94° |
| 2026-04-20 16:12 | 39.22919 | -79.03525 | 23746 ft | 451 kts | 95° |
| 2026-04-20 16:12 | 39.22573 | -78.99511 | 23316 ft | 450 kts | 95° |
| 2026-04-20 16:13 | 39.22225 | -78.95502 | 22874 ft | 449 kts | 95° |
| 2026-04-20 16:13 | 39.21730 | -78.90246 | 22386 ft | 442 kts | 95° |
| 2026-04-20 16:13 | 39.21346 | -78.86343 | 22000 ft | 435 kts | 96° |
| 2026-04-20 16:13 | 39.20968 | -78.82511 | 21655 ft | 427 kts | 95° |
| 2026-04-20 16:14 | 39.20722 | -78.79994 | 21293 ft | 427 kts | 95° |
| 2026-04-20 16:14 | 39.20352 | -78.76196 | 20782 ft | 424 kts | 95° |
| 2026-04-20 16:14 | 39.19986 | -78.72451 | 20416 ft | 416 kts | 95° |
| 2026-04-20 16:14 | 39.19626 | -78.68781 | 20070 ft | 409 kts | 95° |
| 2026-04-20 16:15 | 39.19270 | -78.65170 | 19723 ft | 405 kts | 96° |
| 2026-04-20 16:15 | 39.18915 | -78.61568 | 19382 ft | 404 kts | 96° |
| 2026-04-20 16:15 | 39.18559 | -78.57977 | 19064 ft | 404 kts | 96° |
| 2026-04-20 16:15 | 39.18202 | -78.54380 | 18707 ft | 404 kts | 96° |
| 2026-04-20 16:16 | 39.17846 | -78.50797 | 18355 ft | 402 kts | 96° |
| 2026-04-20 16:16 | 39.17490 | -78.47230 | 17953 ft | 400 kts | 96° |
| 2026-04-20 16:16 | 39.17135 | -78.43682 | 17617 ft | 396 kts | 96° |
| 2026-04-20 16:16 | 39.16781 | -78.40167 | 17277 ft | 393 kts | 96° |
| 2026-04-20 16:17 | 39.16428 | -78.36733 | 16935 ft | 390 kts | 98° |
| 2026-04-20 16:17 | 39.15809 | -78.33344 | 16630 ft | 386 kts | 107° |
| 2026-04-20 16:17 | 39.14973 | -78.30069 | 16302 ft | 383 kts | 109° |
| 2026-04-20 16:17 | 39.14097 | -78.26847 | 15989 ft | 380 kts | 109° |
| 2026-04-20 16:18 | 39.13241 | -78.23644 | 15678 ft | 376 kts | 108° |
| 2026-04-20 16:18 | 39.12418 | -78.20459 | 15374 ft | 373 kts | 108° |
| 2026-04-20 16:18 | 39.11621 | -78.17288 | 15058 ft | 370 kts | 107° |
| 2026-04-20 16:18 | 39.10837 | -78.14145 | 14763 ft | 367 kts | 107° |
| 2026-04-20 16:19 | 39.10057 | -78.11014 | 14463 ft | 365 kts | 107° |
| 2026-04-20 16:19 | 39.09281 | -78.07950 | 14166 ft | 362 kts | 107° |
| 2026-04-20 16:19 | 39.08495 | -78.04875 | 13839 ft | 360 kts | 107° |
| 2026-04-20 16:19 | 39.07714 | -78.01825 | 13518 ft | 357 kts | 107° |
| 2026-04-20 16:20 | 39.06940 | -77.98802 | 13225 ft | 354 kts | 107° |
| 2026-04-20 16:20 | 39.06173 | -77.95809 | 12928 ft | 351 kts | 107° |
| 2026-04-20 16:20 | 39.05411 | -77.92833 | 12640 ft | 348 kts | 108° |
| 2026-04-20 16:20 | 39.04656 | -77.89889 | 12352 ft | 345 kts | 108° |
| 2026-04-20 16:21 | 39.03905 | -77.86969 | 12054 ft | 340 kts | 108° |
| 2026-04-20 16:21 | 39.03172 | -77.84119 | 11776 ft | 332 kts | 108° |
| 2026-04-20 16:21 | 39.02463 | -77.81366 | 11507 ft | 325 kts | 108° |
| 2026-04-20 16:21 | 39.01760 | -77.78638 | 11266 ft | 318 kts | 108° |
| 2026-04-20 16:22 | 39.01067 | -77.75959 | 11015 ft | 313 kts | 108° |
| 2026-04-20 16:22 | 39.00383 | -77.73309 | 10768 ft | 311 kts | 108° |
| 2026-04-20 16:22 | 38.99703 | -77.70678 | 10501 ft | 309 kts | 108° |
| 2026-04-20 16:22 | 38.99027 | -77.68069 | 10252 ft | 306 kts | 108° |
| 2026-04-20 16:23 | 38.98356 | -77.65497 | 9981 ft | 300 kts | 109° |
| 2026-04-20 16:23 | 38.97587 | -77.63059 | 9722 ft | 294 kts | 114° |
| 2026-04-20 16:23 | 38.96742 | -77.60694 | 9488 ft | 290 kts | 115° |
| 2026-04-20 16:23 | 38.95889 | -77.58346 | 9262 ft | 290 kts | 116° |
| 2026-04-20 16:24 | 38.95040 | -77.55988 | 9032 ft | 290 kts | 116° |
| 2026-04-20 16:24 | 38.94200 | -77.53633 | 8802 ft | 290 kts | 115° |
| 2026-04-20 16:24 | 38.93367 | -77.51279 | 8570 ft | 289 kts | 115° |
| 2026-04-20 16:24 | 38.92538 | -77.48931 | 8350 ft | 288 kts | 115° |
| 2026-04-20 16:25 | 38.91711 | -77.46586 | 8118 ft | 288 kts | 115° |
| 2026-04-20 16:25 | 38.90874 | -77.44286 | 7844 ft | 288 kts | 118° |
| 2026-04-20 16:25 | 38.89907 | -77.42019 | 7551 ft | 290 kts | 120° |
| 2026-04-20 16:25 | 38.88912 | -77.39786 | 7234 ft | 287 kts | 120° |
| 2026-04-20 16:26 | 38.87929 | -77.37570 | 6937 ft | 284 kts | 120° |
| 2026-04-20 16:26 | 38.86962 | -77.35369 | 6638 ft | 282 kts | 120° |
| 2026-04-20 16:26 | 38.86004 | -77.33179 | 6313 ft | 281 kts | 119° |
| 2026-04-20 16:26 | 38.85054 | -77.31003 | 6000 ft | 279 kts | 119° |
| 2026-04-20 16:27 | 38.84103 | -77.28856 | 5839 ft | 275 kts | 120° |
| 2026-04-20 16:27 | 38.83146 | -77.26733 | 5691 ft | 275 kts | 120° |
| 2026-04-20 16:27 | 38.82190 | -77.24618 | 5549 ft | 274 kts | 119° |
| 2026-04-20 16:27 | 38.81236 | -77.22504 | 5415 ft | 273 kts | 120° |
| 2026-04-20 16:28 | 38.80294 | -77.20413 | 5257 ft | 274 kts | 120° |
| 2026-04-20 16:28 | 38.79338 | -77.18294 | 5106 ft | 274 kts | 120° |
| 2026-04-20 16:28 | 38.78380 | -77.16174 | 4984 ft | 275 kts | 119° |
| 2026-04-20 16:28 | 38.77416 | -77.14039 | 4842 ft | 278 kts | 120° |
| 2026-04-20 16:29 | 38.76172 | -77.12159 | 4650 ft | 279 kts | 148° |
| 2026-04-20 16:29 | 38.74402 | -77.11255 | 4531 ft | 273 kts | 175° |
| 2026-04-20 16:29 | 38.72526 | -77.11074 | 4403 ft | 270 kts | 182° |
| 2026-04-20 16:29 | 38.70646 | -77.11004 | 4236 ft | 269 kts | 182° |
| 2026-04-20 16:30 | 38.68793 | -77.10931 | 4083 ft | 265 kts | 181° |
| 2026-04-20 16:30 | 38.66955 | -77.10844 | 3965 ft | 265 kts | 181° |
| 2026-04-20 16:30 | 38.65114 | -77.10748 | 3832 ft | 265 kts | 181° |
| 2026-04-20 16:30 | 38.63268 | -77.10648 | 3698 ft | 265 kts | 181° |
| 2026-04-20 16:31 | 38.61436 | -77.10314 | 3588 ft | 270 kts | 160° |
| 2026-04-20 16:31 | 38.59957 | -77.08927 | 3482 ft | 270 kts | 127° |
| 2026-04-20 16:31 | 38.59180 | -77.06753 | 3338 ft | 266 kts | 96° |
| 2026-04-20 16:31 | 38.59297 | -77.04491 | 3232 ft | 257 kts | 66° |
| 2026-04-20 16:32 | 38.60200 | -77.02590 | 3098 ft | 247 kts | 38° |
| 2026-04-20 16:32 | 38.61618 | -77.01554 | 2943 ft | 228 kts | 5° |
| 2026-04-20 16:32 | 38.63134 | -77.01496 | 2855 ft | 210 kts | 353° |
| 2026-04-20 16:32 | 38.64545 | -77.01656 | 2764 ft | 200 kts | 350° |
| 2026-04-20 16:33 | 38.65921 | -77.01818 | 2624 ft | 196 kts | 351° |
| 2026-04-20 16:33 | 38.67275 | -77.01964 | 2532 ft | 196 kts | 351° |
| 2026-04-20 16:33 | 38.68629 | -77.02102 | 2387 ft | 192 kts | 351° |
| 2026-04-20 16:33 | 38.69926 | -77.02232 | 2221 ft | 182 kts | 352° |
| 2026-04-20 16:34 | 38.71172 | -77.02359 | 2104 ft | 180 kts | 351° |
| 2026-04-20 16:34 | 38.72398 | -77.02484 | 1962 ft | 178 kts | 352° |
| 2026-04-20 16:34 | 38.73599 | -77.02604 | 1856 ft | 167 kts | 351° |
| 2026-04-20 16:34 | 38.74723 | -77.02719 | 1751 ft | 158 kts | 352° |
| 2026-04-20 16:35 | 38.75792 | -77.02826 | 1655 ft | 147 kts | 351° |
| 2026-04-20 16:35 | 38.76813 | -77.02930 | 1521 ft | 145 kts | 351° |
| 2026-04-20 16:35 | 38.77815 | -77.03031 | 1331 ft | 144 kts | 351° |
| 2026-04-20 16:35 | 38.78763 | -77.03127 | 1153 ft | 128 kts | 351° |
| 2026-04-20 16:36 | 38.79597 | -77.03212 | 972 ft | 117 kts | 351° |
| 2026-04-20 16:36 | 38.80400 | -77.03293 | 819 ft | 113 kts | 349° |
| 2026-04-20 16:36 | 38.81182 | -77.03369 | 621 ft | 115 kts | 352° |
| 2026-04-20 16:36 | 38.81973 | -77.03454 | 493 ft | 115 kts | 352° |
| 2026-04-20 16:37 | 38.82785 | -77.03537 | 337 ft | 118 kts | 353° |
| 2026-04-20 16:37 | 38.83605 | -77.03618 | 176 ft | 119 kts | 352° |
| 2026-04-20 16:37 | 38.84416 | -77.03699 | 31 ft | 112 kts | 352° |
| 2026-04-20 16:37 | 38.85058 | -77.03766 | 24 ft | 63 kts | 355° |
| 2026-04-20 16:38 | 38.85371 | -77.03798 | 26 ft | 32 kts | 355° |
| 2026-04-20 16:38 | 38.85501 | -77.03850 | 24 ft | 12 kts | 310° |
| 2026-04-20 16:38 | 38.85491 | -77.03941 | 24 ft | 11 kts | 215° |
| 2026-04-20 16:38 | 38.85416 | -77.03943 | 24 ft | 11 kts | 175° |
| 2026-04-20 16:39 | 38.85352 | -77.03942 | 24 ft | 6 kts | 201° |
| 2026-04-20 16:39 | 38.85326 | -77.03984 | 23 ft | 6 kts | 217° |
| 2026-04-20 16:39 | 38.85265 | -77.03989 | 25 ft | 13 kts | 176° |
| 2026-04-20 16:39 | 38.85143 | -77.03976 | 24 ft | 20 kts | 175° |
| 2026-04-20 16:40 | 38.85001 | -77.03962 | 24 ft | 20 kts | 175° |
| 2026-04-20 16:40 | 38.84863 | -77.03948 | 23 ft | 20 kts | 175° |
| 2026-04-20 16:40 | 38.84750 | -77.03967 | 23 ft | 15 kts | 205° |
| 2026-04-20 16:40 | 38.84655 | -77.04024 | 24 ft | 15 kts | 205° |
| 2026-04-20 16:41 | 38.84605 | -77.04082 | 26 ft | 7 kts | 270° |
| 2026-04-20 16:41 | 38.84634 | -77.04109 | 24 ft | 5 kts | 336° |
| 2026-04-20 16:41 | 38.84669 | -77.04129 | 23 ft | 7 kts | 336° |
| 2026-04-20 16:41 | 38.84721 | -77.04159 | 27 ft | 10 kts | 336° |
| 2026-04-20 16:42 | 38.84753 | -77.04188 | 23 ft | 4 kts | 278° |
| 2026-04-20 16:42 | 38.84738 | -77.04212 | 23 ft | 2 kts | 223° |
| 2026-04-20 16:42 | 38.84731 | -77.04221 | 23 ft | 1 kts | 225° |
| 2026-04-20 16:42 | 38.84730 | -77.04222 | 23 ft | 0 kts | 225° |